sensor_id;sensor_type;location;lat;lon;timestamp;P1;durP1;ratioP1;P2;durP2;ratioP2
3523;SDS011;1776;53.330;11.498;2022-12-24T00:01:07;26.40;;;12.97;;
3523;SDS011;1776;53.330;11.498;2022-12-24T00:03:33;21.77;;;12.27;;
3523;SDS011;1776;53.330;11.498;2022-12-24T00:06:03;23.43;;;13.20;;
3523;SDS011;1776;53.330;11.498;2022-12-24T00:08:30;25.40;;;13.10;;
3523;SDS011;1776;53.330;11.498;2022-12-24T00:10:55;26.93;;;13.27;;
3523;SDS011;1776;53.330;11.498;2022-12-24T00:13:20;25.83;;;12.93;;
3523;SDS011;1776;53.330;11.498;2022-12-24T00:15:45;22.93;;;13.33;;
3523;SDS011;1776;53.330;11.498;2022-12-24T00:18:11;24.60;;;11.90;;
3523;SDS011;1776;53.330;11.498;2022-12-24T00:20:36;25.50;;;13.00;;
3523;SDS011;1776;53.330;11.498;2022-12-24T00:23:01;25.07;;;12.77;;
3523;SDS011;1776;53.330;11.498;2022-12-24T00:25:27;27.97;;;13.20;;
3523;SDS011;1776;53.330;11.498;2022-12-24T00:27:52;25.80;;;12.60;;
3523;SDS011;1776;53.330;11.498;2022-12-24T00:30:17;26.97;;;12.00;;
3523;SDS011;1776;53.330;11.498;2022-12-24T00:32:43;23.90;;;13.00;;
3523;SDS011;1776;53.330;11.498;2022-12-24T00:35:08;24.77;;;13.13;;
3523;SDS011;1776;53.330;11.498;2022-12-24T00:37:33;30.60;;;13.13;;
3523;SDS011;1776;53.330;11.498;2022-12-24T00:39:59;20.03;;;11.40;;
3523;SDS011;1776;53.330;11.498;2022-12-24T00:42:24;25.50;;;12.60;;
3523;SDS011;1776;53.330;11.498;2022-12-24T00:44:49;22.27;;;11.80;;
3523;SDS011;1776;53.330;11.498;2022-12-24T00:47:14;22.50;;;11.07;;
3523;SDS011;1776;53.330;11.498;2022-12-24T00:49:40;20.93;;;11.10;;
3523;SDS011;1776;53.330;11.498;2022-12-24T00:52:05;19.40;;;11.00;;
3523;SDS011;1776;53.330;11.498;2022-12-24T00:54:30;22.20;;;12.87;;
3523;SDS011;1776;53.330;11.498;2022-12-24T00:56:56;24.70;;;12.03;;
3523;SDS011;1776;53.330;11.498;2022-12-24T00:59:21;21.70;;;12.00;;
3523;SDS011;1776;53.330;11.498;2022-12-24T01:01:46;16.37;;;11.03;;
3523;SDS011;1776;53.330;11.498;2022-12-24T01:04:11;21.83;;;11.30;;
3523;SDS011;1776;53.330;11.498;2022-12-24T01:07:09;23.67;;;12.27;;
3523;SDS011;1776;53.330;11.498;2022-12-24T01:09:34;22.87;;;11.93;;
3523;SDS011;1776;53.330;11.498;2022-12-24T01:11:59;21.03;;;11.30;;
3523;SDS011;1776;53.330;11.498;2022-12-24T01:14:24;21.40;;;11.40;;
3523;SDS011;1776;53.330;11.498;2022-12-24T01:16:50;17.57;;;10.63;;
3523;SDS011;1776;53.330;11.498;2022-12-24T01:19:15;22.03;;;11.13;;
3523;SDS011;1776;53.330;11.498;2022-12-24T01:21:40;21.33;;;11.43;;
3523;SDS011;1776;53.330;11.498;2022-12-24T01:24:05;20.27;;;10.60;;
3523;SDS011;1776;53.330;11.498;2022-12-24T01:26:31;21.07;;;11.23;;
3523;SDS011;1776;53.330;11.498;2022-12-24T01:28:56;20.70;;;10.97;;
3523;SDS011;1776;53.330;11.498;2022-12-24T01:31:21;18.27;;;9.57;;
3523;SDS011;1776;53.330;11.498;2022-12-24T01:33:47;20.67;;;11.10;;
3523;SDS011;1776;53.330;11.498;2022-12-24T01:36:13;23.40;;;10.43;;
3523;SDS011;1776;53.330;11.498;2022-12-24T01:38:38;16.90;;;9.67;;
3523;SDS011;1776;53.330;11.498;2022-12-24T01:41:04;17.17;;;11.03;;
3523;SDS011;1776;53.330;11.498;2022-12-24T01:43:47;21.27;;;10.30;;
3523;SDS011;1776;53.330;11.498;2022-12-24T01:46:15;17.60;;;9.67;;
3523;SDS011;1776;53.330;11.498;2022-12-24T01:51:36;17.20;;;9.77;;
3523;SDS011;1776;53.330;11.498;2022-12-24T01:54:04;17.10;;;9.60;;
3523;SDS011;1776;53.330;11.498;2022-12-24T01:56:35;19.53;;;9.60;;
3523;SDS011;1776;53.330;11.498;2022-12-24T01:59:04;18.97;;;9.50;;
3523;SDS011;1776;53.330;11.498;2022-12-24T02:01:32;20.00;;;10.37;;
3523;SDS011;1776;53.330;11.498;2022-12-24T02:03:58;17.10;;;9.70;;
3523;SDS011;1776;53.330;11.498;2022-12-24T02:06:25;22.23;;;9.57;;
3523;SDS011;1776;53.330;11.498;2022-12-24T02:08:51;15.83;;;9.30;;
3523;SDS011;1776;53.330;11.498;2022-12-24T02:11:18;19.83;;;9.20;;
3523;SDS011;1776;53.330;11.498;2022-12-24T02:13:48;20.80;;;9.47;;
3523;SDS011;1776;53.330;11.498;2022-12-24T02:21:51;17.67;;;8.13;;
3523;SDS011;1776;53.330;11.498;2022-12-24T02:29:56;14.40;;;8.23;;
3523;SDS011;1776;53.330;11.498;2022-12-24T02:35:14;18.40;;;9.00;;
3523;SDS011;1776;53.330;11.498;2022-12-24T02:41:09;13.00;;;7.40;;
3523;SDS011;1776;53.330;11.498;2022-12-24T02:43:44;11.97;;;6.83;;
3523;SDS011;1776;53.330;11.498;2022-12-24T02:46:11;16.37;;;8.10;;
3523;SDS011;1776;53.330;11.498;2022-12-24T02:48:46;13.87;;;6.97;;
3523;SDS011;1776;53.330;11.498;2022-12-24T02:51:13;16.60;;;8.40;;
3523;SDS011;1776;53.330;11.498;2022-12-24T02:53:39;11.57;;;6.63;;
3523;SDS011;1776;53.330;11.498;2022-12-24T02:56:21;15.77;;;7.90;;
3523;SDS011;1776;53.330;11.498;2022-12-24T02:59:05;14.03;;;7.90;;
3523;SDS011;1776;53.330;11.498;2022-12-24T03:04:27;13.40;;;8.17;;
3523;SDS011;1776;53.330;11.498;2022-12-24T03:13:02;11.23;;;6.37;;
3523;SDS011;1776;53.330;11.498;2022-12-24T03:15:32;17.80;;;8.10;;
3523;SDS011;1776;53.330;11.498;2022-12-24T03:17:59;16.17;;;8.63;;
3523;SDS011;1776;53.330;11.498;2022-12-24T03:20:31;16.27;;;8.13;;
3523;SDS011;1776;53.330;11.498;2022-12-24T03:22:59;14.70;;;7.97;;
3523;SDS011;1776;53.330;11.498;2022-12-24T03:25:24;13.37;;;6.80;;
3523;SDS011;1776;53.330;11.498;2022-12-24T03:27:51;16.73;;;8.03;;
3523;SDS011;1776;53.330;11.498;2022-12-24T03:30:17;13.43;;;6.90;;
3523;SDS011;1776;53.330;11.498;2022-12-24T03:32:43;9.60;;;6.50;;
3523;SDS011;1776;53.330;11.498;2022-12-24T03:35:10;17.27;;;7.80;;
3523;SDS011;1776;53.330;11.498;2022-12-24T03:37:35;15.57;;;8.07;;
3523;SDS011;1776;53.330;11.498;2022-12-24T03:40:02;13.77;;;7.63;;
3523;SDS011;1776;53.330;11.498;2022-12-24T03:42:28;14.97;;;7.70;;
3523;SDS011;1776;53.330;11.498;2022-12-24T03:44:54;13.93;;;6.77;;
3523;SDS011;1776;53.330;11.498;2022-12-24T03:47:19;17.60;;;7.03;;
3523;SDS011;1776;53.330;11.498;2022-12-24T03:49:44;17.17;;;7.97;;
3523;SDS011;1776;53.330;11.498;2022-12-24T03:52:09;10.13;;;6.20;;
3523;SDS011;1776;53.330;11.498;2022-12-24T03:54:35;13.97;;;7.30;;
3523;SDS011;1776;53.330;11.498;2022-12-24T03:57:00;14.80;;;6.40;;
3523;SDS011;1776;53.330;11.498;2022-12-24T03:59:25;11.93;;;7.50;;
3523;SDS011;1776;53.330;11.498;2022-12-24T04:01:51;18.53;;;7.10;;
3523;SDS011;1776;53.330;11.498;2022-12-24T04:04:17;17.20;;;8.73;;
3523;SDS011;1776;53.330;11.498;2022-12-24T04:06:42;17.43;;;6.80;;
3523;SDS011;1776;53.330;11.498;2022-12-24T04:09:07;13.47;;;6.70;;
3523;SDS011;1776;53.330;11.498;2022-12-24T04:11:32;12.80;;;6.83;;
3523;SDS011;1776;53.330;11.498;2022-12-24T04:13:58;10.17;;;6.30;;
3523;SDS011;1776;53.330;11.498;2022-12-24T04:16:23;12.50;;;6.63;;
3523;SDS011;1776;53.330;11.498;2022-12-24T04:18:49;13.27;;;6.13;;
3523;SDS011;1776;53.330;11.498;2022-12-24T04:21:14;14.93;;;7.87;;
3523;SDS011;1776;53.330;11.498;2022-12-24T04:23:40;12.70;;;5.87;;
3523;SDS011;1776;53.330;11.498;2022-12-24T04:26:06;11.17;;;5.60;;
3523;SDS011;1776;53.330;11.498;2022-12-24T04:28:33;10.13;;;6.27;;
3523;SDS011;1776;53.330;11.498;2022-12-24T04:30:59;12.73;;;6.40;;
3523;SDS011;1776;53.330;11.498;2022-12-24T04:33:26;12.73;;;6.37;;
3523;SDS011;1776;53.330;11.498;2022-12-24T04:35:52;11.03;;;6.10;;
3523;SDS011;1776;53.330;11.498;2022-12-24T04:38:17;9.63;;;6.70;;
3523;SDS011;1776;53.330;11.498;2022-12-24T04:40:42;12.40;;;7.33;;
3523;SDS011;1776;53.330;11.498;2022-12-24T04:43:08;12.13;;;6.10;;
3523;SDS011;1776;53.330;11.498;2022-12-24T04:45:33;11.73;;;6.40;;
3523;SDS011;1776;53.330;11.498;2022-12-24T04:47:58;12.27;;;5.70;;
3523;SDS011;1776;53.330;11.498;2022-12-24T04:50:24;9.73;;;5.73;;
3523;SDS011;1776;53.330;11.498;2022-12-24T04:52:49;8.93;;;5.80;;
3523;SDS011;1776;53.330;11.498;2022-12-24T04:55:14;11.87;;;6.10;;
3523;SDS011;1776;53.330;11.498;2022-12-24T04:57:40;10.23;;;6.67;;
3523;SDS011;1776;53.330;11.498;2022-12-24T05:00:05;11.90;;;6.63;;
3523;SDS011;1776;53.330;11.498;2022-12-24T05:02:32;12.20;;;5.90;;
3523;SDS011;1776;53.330;11.498;2022-12-24T05:04:57;9.83;;;6.20;;
3523;SDS011;1776;53.330;11.498;2022-12-24T05:07:22;12.30;;;6.57;;
3523;SDS011;1776;53.330;11.498;2022-12-24T05:09:47;11.53;;;5.90;;
3523;SDS011;1776;53.330;11.498;2022-12-24T05:12:13;13.13;;;6.37;;
3523;SDS011;1776;53.330;11.498;2022-12-24T05:14:38;12.00;;;7.60;;
3523;SDS011;1776;53.330;11.498;2022-12-24T05:17:04;12.50;;;6.17;;
3523;SDS011;1776;53.330;11.498;2022-12-24T05:19:30;14.77;;;8.37;;
3523;SDS011;1776;53.330;11.498;2022-12-24T05:21:55;16.60;;;7.13;;
3523;SDS011;1776;53.330;11.498;2022-12-24T05:24:39;22.73;;;8.33;;
3523;SDS011;1776;53.330;11.498;2022-12-24T05:27:23;15.70;;;9.17;;
3523;SDS011;1776;53.330;11.498;2022-12-24T05:29:48;13.63;;;7.73;;
3523;SDS011;1776;53.330;11.498;2022-12-24T05:32:13;14.30;;;8.37;;
3523;SDS011;1776;53.330;11.498;2022-12-24T05:34:39;10.40;;;6.73;;
3523;SDS011;1776;53.330;11.498;2022-12-24T05:37:04;12.37;;;7.20;;
3523;SDS011;1776;53.330;11.498;2022-12-24T05:39:29;11.83;;;6.20;;
3523;SDS011;1776;53.330;11.498;2022-12-24T05:41:54;11.70;;;6.60;;
3523;SDS011;1776;53.330;11.498;2022-12-24T05:44:20;13.97;;;7.90;;
3523;SDS011;1776;53.330;11.498;2022-12-24T05:46:45;9.50;;;6.50;;
3523;SDS011;1776;53.330;11.498;2022-12-24T05:49:10;11.83;;;6.67;;
3523;SDS011;1776;53.330;11.498;2022-12-24T05:51:37;10.23;;;7.23;;
3523;SDS011;1776;53.330;11.498;2022-12-24T05:54:04;15.43;;;8.17;;
3523;SDS011;1776;53.330;11.498;2022-12-24T05:56:29;17.07;;;7.63;;
3523;SDS011;1776;53.330;11.498;2022-12-24T05:58:55;11.93;;;7.73;;
3523;SDS011;1776;53.330;11.498;2022-12-24T06:01:21;13.57;;;7.47;;
3523;SDS011;1776;53.330;11.498;2022-12-24T06:03:47;16.07;;;8.43;;
3523;SDS011;1776;53.330;11.498;2022-12-24T06:06:14;20.03;;;10.37;;
3523;SDS011;1776;53.330;11.498;2022-12-24T06:08:43;13.50;;;8.40;;
3523;SDS011;1776;53.330;11.498;2022-12-24T06:11:10;18.20;;;9.60;;
3523;SDS011;1776;53.330;11.498;2022-12-24T06:13:37;21.20;;;9.97;;
3523;SDS011;1776;53.330;11.498;2022-12-24T06:16:04;17.00;;;9.40;;
3523;SDS011;1776;53.330;11.498;2022-12-24T06:18:31;17.23;;;10.23;;
3523;SDS011;1776;53.330;11.498;2022-12-24T06:20:58;17.60;;;9.07;;
3523;SDS011;1776;53.330;11.498;2022-12-24T06:23:24;20.90;;;9.67;;
3523;SDS011;1776;53.330;11.498;2022-12-24T06:25:50;18.47;;;10.43;;
3523;SDS011;1776;53.330;11.498;2022-12-24T06:28:16;30.07;;;11.70;;
3523;SDS011;1776;53.330;11.498;2022-12-24T06:30:45;18.23;;;10.33;;
3523;SDS011;1776;53.330;11.498;2022-12-24T06:33:12;20.13;;;9.90;;
3523;SDS011;1776;53.330;11.498;2022-12-24T06:35:38;20.53;;;10.93;;
3523;SDS011;1776;53.330;11.498;2022-12-24T06:38:03;23.20;;;11.80;;
3523;SDS011;1776;53.330;11.498;2022-12-24T06:40:29;23.07;;;13.63;;
3523;SDS011;1776;53.330;11.498;2022-12-24T06:42:54;22.90;;;14.17;;
3523;SDS011;1776;53.330;11.498;2022-12-24T06:45:19;22.80;;;12.63;;
3523;SDS011;1776;53.330;11.498;2022-12-24T06:47:45;30.13;;;13.10;;
3523;SDS011;1776;53.330;11.498;2022-12-24T06:50:10;22.53;;;11.50;;
3523;SDS011;1776;53.330;11.498;2022-12-24T06:52:35;22.20;;;11.30;;
3523;SDS011;1776;53.330;11.498;2022-12-24T06:55:01;21.97;;;11.40;;
3523;SDS011;1776;53.330;11.498;2022-12-24T06:57:26;22.00;;;13.13;;
3523;SDS011;1776;53.330;11.498;2022-12-24T06:59:52;27.77;;;13.40;;
3523;SDS011;1776;53.330;11.498;2022-12-24T07:02:17;27.03;;;12.30;;
3523;SDS011;1776;53.330;11.498;2022-12-24T07:04:42;27.40;;;14.07;;
3523;SDS011;1776;53.330;11.498;2022-12-24T07:07:07;22.90;;;13.57;;
3523;SDS011;1776;53.330;11.498;2022-12-24T07:09:33;24.33;;;13.60;;
3523;SDS011;1776;53.330;11.498;2022-12-24T07:11:58;21.43;;;11.77;;
3523;SDS011;1776;53.330;11.498;2022-12-24T07:14:23;19.60;;;11.50;;
3523;SDS011;1776;53.330;11.498;2022-12-24T07:16:48;21.10;;;11.03;;
3523;SDS011;1776;53.330;11.498;2022-12-24T07:19:14;23.60;;;12.90;;
3523;SDS011;1776;53.330;11.498;2022-12-24T07:21:39;22.90;;;14.20;;
3523;SDS011;1776;53.330;11.498;2022-12-24T07:24:04;26.70;;;12.03;;
3523;SDS011;1776;53.330;11.498;2022-12-24T07:26:30;19.53;;;11.03;;
3523;SDS011;1776;53.330;11.498;2022-12-24T07:28:55;22.50;;;12.30;;
3523;SDS011;1776;53.330;11.498;2022-12-24T07:31:20;29.13;;;11.37;;
3523;SDS011;1776;53.330;11.498;2022-12-24T07:33:45;21.33;;;11.63;;
3523;SDS011;1776;53.330;11.498;2022-12-24T07:36:13;23.10;;;12.60;;
3523;SDS011;1776;53.330;11.498;2022-12-24T07:38:43;23.33;;;11.97;;
3523;SDS011;1776;53.330;11.498;2022-12-24T07:41:08;22.87;;;12.30;;
3523;SDS011;1776;53.330;11.498;2022-12-24T07:43:33;20.80;;;11.60;;
3523;SDS011;1776;53.330;11.498;2022-12-24T07:45:59;17.07;;;11.00;;
3523;SDS011;1776;53.330;11.498;2022-12-24T07:48:25;23.57;;;11.70;;
3523;SDS011;1776;53.330;11.498;2022-12-24T07:50:51;21.73;;;13.00;;
3523;SDS011;1776;53.330;11.498;2022-12-24T07:53:17;22.40;;;11.80;;
3523;SDS011;1776;53.330;11.498;2022-12-24T07:55:43;16.90;;;9.17;;
3523;SDS011;1776;53.330;11.498;2022-12-24T07:58:09;16.10;;;10.27;;
3523;SDS011;1776;53.330;11.498;2022-12-24T08:00:34;20.30;;;8.07;;
3523;SDS011;1776;53.330;11.498;2022-12-24T08:03:00;21.53;;;10.50;;
3523;SDS011;1776;53.330;11.498;2022-12-24T08:05:26;17.33;;;9.33;;
3523;SDS011;1776;53.330;11.498;2022-12-24T08:07:51;15.90;;;8.50;;
3523;SDS011;1776;53.330;11.498;2022-12-24T08:10:17;16.53;;;9.00;;
3523;SDS011;1776;53.330;11.498;2022-12-24T08:12:42;14.00;;;8.70;;
3523;SDS011;1776;53.330;11.498;2022-12-24T08:15:07;14.23;;;8.50;;
3523;SDS011;1776;53.330;11.498;2022-12-24T08:17:33;18.93;;;9.73;;
3523;SDS011;1776;53.330;11.498;2022-12-24T08:19:58;15.07;;;8.50;;
3523;SDS011;1776;53.330;11.498;2022-12-24T08:22:24;16.97;;;10.70;;
3523;SDS011;1776;53.330;11.498;2022-12-24T08:24:49;15.33;;;9.17;;
3523;SDS011;1776;53.330;11.498;2022-12-24T08:27:14;17.13;;;9.87;;
3523;SDS011;1776;53.330;11.498;2022-12-24T08:29:40;15.47;;;8.73;;
3523;SDS011;1776;53.330;11.498;2022-12-24T08:32:05;15.30;;;8.77;;
3523;SDS011;1776;53.330;11.498;2022-12-24T08:34:30;16.33;;;9.63;;
3523;SDS011;1776;53.330;11.498;2022-12-24T08:36:56;15.93;;;8.80;;
3523;SDS011;1776;53.330;11.498;2022-12-24T08:39:21;16.00;;;8.20;;
3523;SDS011;1776;53.330;11.498;2022-12-24T08:41:47;18.77;;;9.13;;
3523;SDS011;1776;53.330;11.498;2022-12-24T08:44:12;15.07;;;9.20;;
3523;SDS011;1776;53.330;11.498;2022-12-24T08:46:37;13.47;;;8.23;;
3523;SDS011;1776;53.330;11.498;2022-12-24T08:49:02;13.67;;;7.80;;
3523;SDS011;1776;53.330;11.498;2022-12-24T08:51:28;17.53;;;9.90;;
3523;SDS011;1776;53.330;11.498;2022-12-24T08:53:53;18.33;;;8.83;;
3523;SDS011;1776;53.330;11.498;2022-12-24T08:56:18;15.80;;;7.10;;
3523;SDS011;1776;53.330;11.498;2022-12-24T08:58:43;17.40;;;9.77;;
3523;SDS011;1776;53.330;11.498;2022-12-24T09:01:13;18.90;;;9.97;;
3523;SDS011;1776;53.330;11.498;2022-12-24T09:03:39;13.80;;;8.23;;
3523;SDS011;1776;53.330;11.498;2022-12-24T09:06:05;16.53;;;10.10;;
3523;SDS011;1776;53.330;11.498;2022-12-24T09:08:31;16.17;;;8.70;;
3523;SDS011;1776;53.330;11.498;2022-12-24T09:11:08;17.53;;;9.60;;
3523;SDS011;1776;53.330;11.498;2022-12-24T09:13:35;20.07;;;8.53;;
3523;SDS011;1776;53.330;11.498;2022-12-24T09:16:00;17.30;;;8.33;;
3523;SDS011;1776;53.330;11.498;2022-12-24T09:18:27;16.03;;;8.67;;
3523;SDS011;1776;53.330;11.498;2022-12-24T09:21:02;14.27;;;7.97;;
3523;SDS011;1776;53.330;11.498;2022-12-24T09:23:36;17.23;;;9.30;;
3523;SDS011;1776;53.330;11.498;2022-12-24T09:26:05;12.73;;;7.57;;
3523;SDS011;1776;53.330;11.498;2022-12-24T09:28:31;16.97;;;9.20;;
3523;SDS011;1776;53.330;11.498;2022-12-24T09:30:57;13.33;;;8.20;;
3523;SDS011;1776;53.330;11.498;2022-12-24T09:33:24;19.83;;;8.80;;
3523;SDS011;1776;53.330;11.498;2022-12-24T09:35:51;13.97;;;8.30;;
3523;SDS011;1776;53.330;11.498;2022-12-24T09:38:17;18.40;;;8.90;;
3523;SDS011;1776;53.330;11.498;2022-12-24T09:40:43;16.03;;;9.63;;
3523;SDS011;1776;53.330;11.498;2022-12-24T09:43:15;16.23;;;8.70;;
3523;SDS011;1776;53.330;11.498;2022-12-24T09:48:28;16.20;;;8.33;;
3523;SDS011;1776;53.330;11.498;2022-12-24T09:53:39;17.23;;;9.50;;
3523;SDS011;1776;53.330;11.498;2022-12-24T09:56:15;23.30;;;11.83;;
3523;SDS011;1776;53.330;11.498;2022-12-24T09:58:57;20.67;;;12.10;;
3523;SDS011;1776;53.330;11.498;2022-12-24T10:01:24;21.70;;;13.83;;
3523;SDS011;1776;53.330;11.498;2022-12-24T10:03:50;20.10;;;10.83;;
3523;SDS011;1776;53.330;11.498;2022-12-24T10:06:19;19.73;;;11.33;;
3523;SDS011;1776;53.330;11.498;2022-12-24T10:11:30;24.80;;;15.23;;
3523;SDS011;1776;53.330;11.498;2022-12-24T10:25:08;17.37;;;11.23;;
3523;SDS011;1776;53.330;11.498;2022-12-24T10:27:37;19.00;;;10.17;;
3523;SDS011;1776;53.330;11.498;2022-12-24T10:30:13;24.97;;;12.90;;
3523;SDS011;1776;53.330;11.498;2022-12-24T10:32:40;32.27;;;14.60;;
3523;SDS011;1776;53.330;11.498;2022-12-24T10:37:37;24.63;;;13.20;;
3523;SDS011;1776;53.330;11.498;2022-12-24T10:40:04;25.47;;;13.50;;
3523;SDS011;1776;53.330;11.498;2022-12-24T10:42:34;20.53;;;11.30;;
3523;SDS011;1776;53.330;11.498;2022-12-24T10:45:03;16.77;;;10.17;;
3523;SDS011;1776;53.330;11.498;2022-12-24T10:47:31;18.83;;;10.07;;
3523;SDS011;1776;53.330;11.498;2022-12-24T10:52:50;21.63;;;11.50;;
3523;SDS011;1776;53.330;11.498;2022-12-24T10:55:24;29.43;;;15.40;;
3523;SDS011;1776;53.330;11.498;2022-12-24T10:58:01;24.60;;;11.60;;
3523;SDS011;1776;53.330;11.498;2022-12-24T11:00:30;17.03;;;9.73;;
3523;SDS011;1776;53.330;11.498;2022-12-24T11:05:36;21.53;;;10.97;;
3523;SDS011;1776;53.330;11.498;2022-12-24T11:08:24;30.20;;;13.97;;
3523;SDS011;1776;53.330;11.498;2022-12-24T11:10:57;20.77;;;12.40;;
3523;SDS011;1776;53.330;11.498;2022-12-24T11:13:29;25.17;;;12.43;;
3523;SDS011;1776;53.330;11.498;2022-12-24T11:18:25;18.57;;;11.57;;
3523;SDS011;1776;53.330;11.498;2022-12-24T11:20:51;23.00;;;12.07;;
3523;SDS011;1776;53.330;11.498;2022-12-24T11:23:17;20.73;;;13.40;;
3523;SDS011;1776;53.330;11.498;2022-12-24T11:25:45;20.60;;;12.53;;
3523;SDS011;1776;53.330;11.498;2022-12-24T11:28:21;30.93;;;14.50;;
3523;SDS011;1776;53.330;11.498;2022-12-24T11:31:02;23.37;;;13.70;;
3523;SDS011;1776;53.330;11.498;2022-12-24T11:33:31;21.90;;;14.10;;
3523;SDS011;1776;53.330;11.498;2022-12-24T11:36:10;23.13;;;12.30;;
3523;SDS011;1776;53.330;11.498;2022-12-24T11:38:37;21.60;;;11.00;;
3523;SDS011;1776;53.330;11.498;2022-12-24T11:41:08;16.83;;;9.70;;
3523;SDS011;1776;53.330;11.498;2022-12-24T11:43:36;25.17;;;12.87;;
3523;SDS011;1776;53.330;11.498;2022-12-24T11:48:37;22.23;;;12.03;;
3523;SDS011;1776;53.330;11.498;2022-12-24T11:51:04;19.30;;;10.93;;
3523;SDS011;1776;53.330;11.498;2022-12-24T11:53:38;22.97;;;13.70;;
3523;SDS011;1776;53.330;11.498;2022-12-24T11:56:12;21.63;;;11.40;;
3523;SDS011;1776;53.330;11.498;2022-12-24T11:58:49;23.40;;;12.90;;
3523;SDS011;1776;53.330;11.498;2022-12-24T12:04:14;23.53;;;14.17;;
3523;SDS011;1776;53.330;11.498;2022-12-24T12:06:44;19.20;;;13.40;;
3523;SDS011;1776;53.330;11.498;2022-12-24T12:09:18;22.40;;;12.30;;
3523;SDS011;1776;53.330;11.498;2022-12-24T12:11:47;22.20;;;13.90;;
3523;SDS011;1776;53.330;11.498;2022-12-24T12:14:20;22.17;;;12.60;;
3523;SDS011;1776;53.330;11.498;2022-12-24T12:17:02;16.77;;;11.37;;
3523;SDS011;1776;53.330;11.498;2022-12-24T12:19:38;17.70;;;10.67;;
3523;SDS011;1776;53.330;11.498;2022-12-24T12:22:10;17.23;;;10.10;;
3523;SDS011;1776;53.330;11.498;2022-12-24T12:24:54;17.30;;;11.00;;
3523;SDS011;1776;53.330;11.498;2022-12-24T12:29:57;15.70;;;9.73;;
3523;SDS011;1776;53.330;11.498;2022-12-24T12:32:34;17.93;;;10.67;;
3523;SDS011;1776;53.330;11.498;2022-12-24T12:35:14;14.20;;;9.00;;
3523;SDS011;1776;53.330;11.498;2022-12-24T12:37:47;11.80;;;7.73;;
3523;SDS011;1776;53.330;11.498;2022-12-24T12:40:31;16.73;;;9.60;;
3523;SDS011;1776;53.330;11.498;2022-12-24T12:43:08;17.43;;;10.93;;
3523;SDS011;1776;53.330;11.498;2022-12-24T12:49:04;17.60;;;11.17;;
3523;SDS011;1776;53.330;11.498;2022-12-24T12:51:55;17.70;;;10.20;;
3523;SDS011;1776;53.330;11.498;2022-12-24T12:57:12;14.90;;;9.70;;
3523;SDS011;1776;53.330;11.498;2022-12-24T13:10:34;11.10;;;7.90;;
3523;SDS011;1776;53.330;11.498;2022-12-24T13:21:42;13.60;;;9.93;;
3523;SDS011;1776;53.330;11.498;2022-12-24T13:24:26;17.23;;;11.20;;
3523;SDS011;1776;53.330;11.498;2022-12-24T13:27:01;16.97;;;11.07;;
3523;SDS011;1776;53.330;11.498;2022-12-24T13:37:20;20.37;;;11.80;;
3523;SDS011;1776;53.330;11.498;2022-12-24T13:40:00;15.47;;;10.10;;
3523;SDS011;1776;53.330;11.498;2022-12-24T13:42:44;19.60;;;10.97;;
3523;SDS011;1776;53.330;11.498;2022-12-24T13:50:42;14.10;;;7.90;;
3523;SDS011;1776;53.330;11.498;2022-12-24T13:53:24;15.87;;;10.83;;
3523;SDS011;1776;53.330;11.498;2022-12-24T13:56:05;15.00;;;8.90;;
3523;SDS011;1776;53.330;11.498;2022-12-24T13:58:35;20.53;;;9.90;;
3523;SDS011;1776;53.330;11.498;2022-12-24T14:01:05;18.10;;;11.00;;
3523;SDS011;1776;53.330;11.498;2022-12-24T14:08:44;16.33;;;9.00;;
3523;SDS011;1776;53.330;11.498;2022-12-24T14:11:22;16.33;;;9.50;;
3523;SDS011;1776;53.330;11.498;2022-12-24T14:16:22;17.47;;;8.80;;
3523;SDS011;1776;53.330;11.498;2022-12-24T14:18:57;16.63;;;10.17;;
3523;SDS011;1776;53.330;11.498;2022-12-24T14:21:32;19.90;;;9.67;;
3523;SDS011;1776;53.330;11.498;2022-12-24T14:24:01;12.77;;;9.40;;
3523;SDS011;1776;53.330;11.498;2022-12-24T14:26:34;14.03;;;7.87;;
3523;SDS011;1776;53.330;11.498;2022-12-24T14:32:13;14.40;;;8.70;;
3523;SDS011;1776;53.330;11.498;2022-12-24T14:34:40;11.20;;;8.93;;
3523;SDS011;1776;53.330;11.498;2022-12-24T14:37:05;16.30;;;10.73;;
3523;SDS011;1776;53.330;11.498;2022-12-24T14:39:34;10.57;;;8.40;;
3523;SDS011;1776;53.330;11.498;2022-12-24T14:56:16;19.60;;;10.20;;
3523;SDS011;1776;53.330;11.498;2022-12-24T14:58:43;19.97;;;11.57;;
3523;SDS011;1776;53.330;11.498;2022-12-24T15:01:43;18.73;;;8.83;;
3523;SDS011;1776;53.330;11.498;2022-12-24T15:06:34;12.13;;;9.03;;
3523;SDS011;1776;53.330;11.498;2022-12-24T15:09:02;17.80;;;11.60;;
3523;SDS011;1776;53.330;11.498;2022-12-24T15:11:28;21.43;;;13.03;;
3523;SDS011;1776;53.330;11.498;2022-12-24T15:13:54;27.73;;;15.00;;
3523;SDS011;1776;53.330;11.498;2022-12-24T15:16:30;38.37;;;22.50;;
3523;SDS011;1776;53.330;11.498;2022-12-24T15:19:01;35.47;;;20.40;;
3523;SDS011;1776;53.330;11.498;2022-12-24T15:21:33;29.07;;;15.97;;
3523;SDS011;1776;53.330;11.498;2022-12-24T15:26:54;29.57;;;17.00;;
3523;SDS011;1776;53.330;11.498;2022-12-24T15:29:21;22.00;;;15.40;;
3523;SDS011;1776;53.330;11.498;2022-12-24T15:31:55;23.83;;;15.10;;
3523;SDS011;1776;53.330;11.498;2022-12-24T15:34:29;20.77;;;12.50;;
3523;SDS011;1776;53.330;11.498;2022-12-24T15:37:00;24.83;;;11.97;;
3523;SDS011;1776;53.330;11.498;2022-12-24T15:39:28;40.00;;;21.57;;
3523;SDS011;1776;53.330;11.498;2022-12-24T15:41:54;39.53;;;19.70;;
3523;SDS011;1776;53.330;11.498;2022-12-24T15:44:39;25.47;;;14.00;;
3523;SDS011;1776;53.330;11.498;2022-12-24T15:47:12;29.33;;;13.60;;
3523;SDS011;1776;53.330;11.498;2022-12-24T15:49:42;18.30;;;11.13;;
3523;SDS011;1776;53.330;11.498;2022-12-24T15:52:12;16.40;;;9.10;;
3523;SDS011;1776;53.330;11.498;2022-12-24T15:54:45;29.43;;;14.53;;
3523;SDS011;1776;53.330;11.498;2022-12-24T15:59:56;59.40;;;24.00;;
3523;SDS011;1776;53.330;11.498;2022-12-24T16:04:48;29.20;;;14.20;;
3523;SDS011;1776;53.330;11.498;2022-12-24T16:07:25;30.90;;;14.77;;
3523;SDS011;1776;53.330;11.498;2022-12-24T16:10:23;26.97;;;12.93;;
3523;SDS011;1776;53.330;11.498;2022-12-24T16:12:49;23.40;;;10.10;;
3523;SDS011;1776;53.330;11.498;2022-12-24T16:15:15;27.67;;;11.80;;
3523;SDS011;1776;53.330;11.498;2022-12-24T16:17:40;25.63;;;12.10;;
3523;SDS011;1776;53.330;11.498;2022-12-24T16:20:20;24.60;;;10.80;;
3523;SDS011;1776;53.330;11.498;2022-12-24T16:22:47;20.27;;;10.33;;
3523;SDS011;1776;53.330;11.498;2022-12-24T16:27:41;14.83;;;8.37;;
3523;SDS011;1776;53.330;11.498;2022-12-24T16:30:08;31.33;;;14.23;;
3523;SDS011;1776;53.330;11.498;2022-12-24T16:32:35;32.37;;;13.97;;
3523;SDS011;1776;53.330;11.498;2022-12-24T16:35:03;22.63;;;11.97;;
3523;SDS011;1776;53.330;11.498;2022-12-24T16:37:31;23.37;;;12.07;;
3523;SDS011;1776;53.330;11.498;2022-12-24T16:39:56;20.93;;;10.83;;
3523;SDS011;1776;53.330;11.498;2022-12-24T16:42:22;26.10;;;13.13;;
3523;SDS011;1776;53.330;11.498;2022-12-24T16:45:06;28.63;;;16.37;;
3523;SDS011;1776;53.330;11.498;2022-12-24T16:47:33;28.43;;;14.97;;
3523;SDS011;1776;53.330;11.498;2022-12-24T16:50:01;27.53;;;12.13;;
3523;SDS011;1776;53.330;11.498;2022-12-24T16:52:28;21.40;;;11.37;;
3523;SDS011;1776;53.330;11.498;2022-12-24T16:54:57;24.20;;;12.47;;
3523;SDS011;1776;53.330;11.498;2022-12-24T16:57:23;20.47;;;9.70;;
3523;SDS011;1776;53.330;11.498;2022-12-24T16:59:48;31.67;;;9.00;;
3523;SDS011;1776;53.330;11.498;2022-12-24T17:02:15;18.83;;;9.10;;
3523;SDS011;1776;53.330;11.498;2022-12-24T17:04:42;22.93;;;10.47;;
3523;SDS011;1776;53.330;11.498;2022-12-24T17:07:08;19.30;;;8.90;;
3523;SDS011;1776;53.330;11.498;2022-12-24T17:09:34;22.30;;;9.70;;
3523;SDS011;1776;53.330;11.498;2022-12-24T17:12:00;19.30;;;10.10;;